Temp: 0.3°C   Baro: 1011.4mb
  Wind: 0.0mph   Dir: N (352°)
  Rain: 0.0mm (0.0mm/hr)
  Solar: 0W/m2  Hum: 86%

Historic data

Bath Spa Weather Station Historical Data
Daily Summary for October 4, 2021 Units:  Metric    English   Both
Daily Weekly Monthly Yearly Custom
  High: Low: Average:
Temperature: 15.1 °C 8.8 °C 12.2 °C
Dew Point: 12.4 °C 7.7 °C 10.2 °C
Humidity: 92% 74% 85%
Wind Speed: 18.3km/h 0km/h 7.6km/h
Wind Gust: 30.6km/h - -
Wind- - SSW
Pressure: 1008.7 hPa 998.5 hPa -
Precipitation: 9.14 mm    
Historical Graphs
 
 
Tabular Data for October 4, 2021
Time Temperature Dew Point Pressure Wind Wind Speed Wind Gust Humidity Rainfall Rate (Hourly) solar
00:04 10.1 °C 8.7 °C 1006.3 hPa SW 1.3 km/h 4.8 km/h 88% 0 mm 0 W/m2
00:09 10.1 °C 8.7 °C 1006.3 hPa SW 2.3 km/h 4.8 km/h 88% 0 mm 0 W/m2
00:14 9.8 °C 8.4 °C 1006.3 hPa SW 2.7 km/h 4.8 km/h 88% 0 mm 0 W/m2
00:19 9.8 °C 8.6 °C 1006.3 hPa SW 3.2 km/h 4.8 km/h 89% 0 mm 0 W/m2
00:24 9.8 °C 8.6 °C 1006.3 hPa SW 0.8 km/h 3.2 km/h 89% 0 mm 0 W/m2
00:29 9.7 °C 8.4 °C 1006.3 hPa SW 1 km/h 6.4 km/h 89% 0 mm 0 W/m2
00:34 9.7 °C 8.4 °C 1006.3 hPa SW 0.6 km/h 3.2 km/h 89% 0 mm 0 W/m2
00:39 9.6 °C 8.4 °C 1006.3 hPa SW 1.4 km/h 3.2 km/h 89% 0 mm 0 W/m2
00:44 9.6 °C 8.5 °C 1006.3 hPa SW 2.9 km/h 4.8 km/h 89.8% 0 mm 0 W/m2
00:49 9.6 °C 8.5 °C 1006.3 hPa SW 3.4 km/h 6.4 km/h 90% 0 mm 0 W/m2
00:54 9.4 °C 8.3 °C 1006.7 hPa SW 1.3 km/h 6.4 km/h 90% 0 mm 0 W/m2
00:59 9.5 °C 8.4 °C 1006.7 hPa SW 2.3 km/h 8 km/h 90% 0 mm 0 W/m2
01:04 9.7 °C 8.6 °C 1006.7 hPa SW 1 km/h 4.8 km/h 90% 0 mm 0 W/m2
01:09 9.9 °C 8.8 °C 1006.7 hPa SW 1 km/h 6.4 km/h 90% 0 mm 0 W/m2
01:14 10 °C 9 °C 1006.7 hPa SW 1.3 km/h 6.4 km/h 90.4% 0 mm 0 W/m2
01:19 10 °C 9 °C 1006.7 hPa SW 1.9 km/h 6.4 km/h 90.4% 0 mm 0 W/m2
01:24 10.1 °C 9.2 °C 1006.3 hPa SW 2.7 km/h 8 km/h 91% 0 mm 0 W/m2
01:29 10.3 °C 9.3 °C 1006.7 hPa SW 3.2 km/h 11.3 km/h 90.6% 0 mm 0 W/m2
01:34 10.4 °C 9.3 °C 1006.7 hPa SW 0.6 km/h 11.3 km/h 90% 0 mm 0 W/m2
01:39 10.3 °C 9.3 °C 1006.7 hPa SW 1.3 km/h 4.8 km/h 90.2% 0 mm 0 W/m2
01:44 10.2 °C 9.1 °C 1006.7 hPa SW 2.6 km/h 8 km/h 90% 0 mm 0 W/m2
01:49 10.2 °C 9.1 °C 1006.7 hPa SW 1.6 km/h 8 km/h 90% 0 mm 0 W/m2
01:54 10.1 °C 9 °C 1006.7 hPa SW 1.3 km/h 6.4 km/h 90% 0 mm 0 W/m2
01:59 10.1 °C 9 °C 1006.7 hPa Calm   1.6 km/h 90% 0 mm 0 W/m2
02:04 10 °C 8.9 °C 1006.7 hPa Calm   1.6 km/h 90% 0 mm 0 W/m2
02:09 9.9 °C 8.8 °C 1006.7 hPa SW 0.6 km/h 4.8 km/h 90% 0 mm 0 W/m2
02:14 9.9 °C 8.8 °C 1006.7 hPa SW 0.6 km/h 3.2 km/h 90% 0 mm 0 W/m2
02:19 9.9 °C 8.8 °C 1006.7 hPa SW 1.3 km/h 3.2 km/h 90% 0 mm 0 W/m2
02:24 10.1 °C 9.1 °C 1006.7 hPa SW 1.9 km/h 3.2 km/h 90.2% 0 mm 0 W/m2
02:29 10.2 °C 9.1 °C 1006.7 hPa SW 1.3 km/h 4.8 km/h 90% 0 mm 0 W/m2
02:34 10.3 °C 9.2 °C 1006.7 hPa SW 1.4 km/h 6.4 km/h 90% 0 mm 0 W/m2
02:39 10.3 °C 9.2 °C 1006.7 hPa SW 0.6 km/h 1.6 km/h 90% 0 mm 0 W/m2
02:44 10.3 °C 9.2 °C 1006.7 hPa SW 0.6 km/h 3.2 km/h 90% 0 mm 0 W/m2
02:49 10.3 °C 9.2 °C 1006.7 hPa SW 1.9 km/h 4.8 km/h 90% 0 mm 0 W/m2
02:54 10.4 °C 9.3 °C 1006.7 hPa SW 1.4 km/h 4.8 km/h 90% 0 mm 0 W/m2
02:59 10.6 °C 9.5 °C 1006.7 hPa SW 4.7 km/h 9.7 km/h 90% 0 mm 0 W/m2
03:04 10.8 °C 9.7 °C 1006.7 hPa SW 4.5 km/h 8 km/h 90% 0 mm 0 W/m2
03:09 10.8 °C 9.7 °C 1006.7 hPa SW 3.2 km/h 8 km/h 90% 0 mm 0 W/m2
03:14 10.9 °C 9.8 °C 1006.7 hPa SW 5.6 km/h 12.9 km/h 89.8% 0 mm 0 W/m2
03:19 11.1 °C 9.8 °C 1006.3 hPa SW 4.7 km/h 8 km/h 89% 0 mm 0 W/m2
03:24 11.1 °C 9.8 °C 1006.3 hPa SW 4.7 km/h 9.7 km/h 89% 0 mm 0 W/m2
03:29 11.1 °C 9.8 °C 1006.3 hPa SW 5.8 km/h 9.7 km/h 89% 0 mm 0 W/m2
03:34 11 °C 9.7 °C 1006.3 hPa SW 5.8 km/h 11.3 km/h 88.4% 0 mm 0 W/m2
03:39 10.9 °C 9.5 °C 1006.3 hPa SW 7.1 km/h 14.5 km/h 88% 0 mm 0 W/m2
03:44 10.9 °C 9.5 °C 1006.3 hPa SW 6.4 km/h 14.5 km/h 88% 0 mm 0 W/m2
03:49 10.9 °C 9.5 °C 1006.3 hPa SW 5.3 km/h 11.3 km/h 88% 0 mm 0 W/m2
03:54 10.9 °C 9.3 °C 1006.3 hPa SW 8.4 km/h 16.1 km/h 87% 0 mm 0 W/m2
03:59 10.9 °C 9.3 °C 1006.3 hPa SW 7.7 km/h 12.9 km/h 87% 0 mm 0 W/m2
04:04 10.8 °C 9.2 °C 1006.3 hPa SW 8.5 km/h 14.5 km/h 87% 0 mm 0 W/m2
04:09 10.8 °C 9.2 °C 1006.3 hPa SW 6.8 km/h 14.5 km/h 87% 0 mm 0 W/m2
04:14 10.8 °C 9.2 °C 1006.3 hPa SW 6.8 km/h 12.9 km/h 87% 0 mm 0 W/m2
04:19 10.7 °C 9.1 °C 1006.3 hPa SW 3.5 km/h 11.3 km/h 87% 0 mm 0 W/m2
04:24 10.7 °C 9.1 °C 1006.3 hPa SW 6.4 km/h 11.3 km/h 87% 0 mm 0 W/m2
04:29 10.7 °C 9.1 °C 1006.3 hPa SW 4.5 km/h 8 km/h 87% 0 mm 0 W/m2
04:34 10.6 °C 9 °C 1006.3 hPa SW 3.5 km/h 11.3 km/h 87% 0 mm 0 W/m2
04:39 10.6 °C 8.9 °C 1006.3 hPa SW 6 km/h 11.3 km/h 87% 0 mm 0 W/m2
04:44 10.5 °C 8.9 °C 1006.3 hPa SW 7.2 km/h 12.9 km/h 87% 0 mm 0 W/m2
04:49 10.4 °C 8.8 °C 1006.7 hPa SW 3.2 km/h 8 km/h 87% 0 mm 0 W/m2
04:54 10.4 °C 8.8 °C 1006.7 hPa SW 1.3 km/h 4.8 km/h 87% 0 mm 0 W/m2
04:59 10.3 °C 8.7 °C 1006.7 hPa SW 4.5 km/h 8 km/h 87% 0 mm 0 W/m2
05:04 10.2 °C 8.7 °C 1006.7 hPa SW 2.6 km/h 6.4 km/h 87.2% 0 mm 0 W/m2
05:09 10.2 °C 8.7 °C 1006.7 hPa SW 1.8 km/h 6.4 km/h 87.6% 0 mm 0 W/m2
05:14 10.1 °C 8.7 °C 1007 hPa SW 2.6 km/h 4.8 km/h 88% 0 mm 0 W/m2
05:19 9.9 °C 8.5 °C 1007 hPa SW 3.4 km/h 6.4 km/h 88% 0 mm 0 W/m2
05:24 9.9 °C 8.5 °C 1007 hPa SW 4.8 km/h 8 km/h 88% 0 mm 0 W/m2
05:29 9.8 °C 8.4 °C 1007 hPa SW 2.7 km/h 8 km/h 88% 0 mm 0 W/m2
05:34 9.8 °C 8.4 °C 1007 hPa SW 4 km/h 6.4 km/h 88% 0 mm 0 W/m2
05:39 9.8 °C 8.4 °C 1007 hPa SW 1.3 km/h 8 km/h 88% 0 mm 0 W/m2
05:44 9.8 °C 8.4 °C 1007 hPa SW 1.6 km/h 8 km/h 88% 0 mm 0 W/m2
05:49 9.8 °C 8.4 °C 1007 hPa SW 1 km/h 3.2 km/h 88% 0 mm 0 W/m2
05:54 9.8 °C 8.4 °C 1007.3 hPa SW 1.3 km/h 4.8 km/h 88% 0 mm 0 W/m2
05:59 9.7 °C 8.3 °C 1007.3 hPa SW 1.4 km/h 3.2 km/h 88% 0 mm 0 W/m2
06:04 9.6 °C 8.2 °C 1007.3 hPa SW 0.8 km/h 4.8 km/h 88% 0 mm 0 W/m2
06:09 9.4 °C 8.1 °C 1007.3 hPa SW 2.3 km/h 4.8 km/h 88% 0 mm 0 W/m2
06:14 9.3 °C 7.9 °C 1007.3 hPa SW 2.1 km/h 4.8 km/h 88% 0 mm 0 W/m2
06:19 9.1 °C 7.7 °C 1007.3 hPa SW 2.6 km/h 6.4 km/h 88% 0 mm 0 W/m2
06:24 9.2 °C 7.9 °C 1007.3 hPa SW 1.9 km/h 6.4 km/h 88.8% 0 mm 0 W/m2
06:29 9.2 °C 8 °C 1007.3 hPa SW 1.3 km/h 4.8 km/h 89% 0 mm 0 W/m2
06:34 9.2 °C 8 °C 1007.3 hPa SW 3.7 km/h 8 km/h 89% 0 mm 0 W/m2
06:39 9.2 °C 8 °C 1007.3 hPa SW 1.6 km/h 6.4 km/h 89% 0 mm 0 W/m2
06:44 9.2 °C 8 °C 1007.3 hPa SW 1.8 km/h 4.8 km/h 89% 0 mm 0 W/m2
06:49 9.1 °C 7.9 °C 1007.3 hPa SW 1.9 km/h 3.2 km/h 89.4% 0 mm 0 W/m2
06:54 9.1 °C 8 °C 1007.3 hPa SW 1.3 km/h 3.2 km/h 90% 0 mm 0 W/m2
06:59 9.1 °C 8 °C 1007.3 hPa SW 2.1 km/h 4.8 km/h 90% 0 mm 0 W/m2
07:04 8.9 °C 7.8 °C 1007.3 hPa SW 2.4 km/h 6.4 km/h 89.2% 0 mm 0 W/m2
07:09 8.9 °C 7.8 °C 1007.3 hPa SW 1.4 km/h 3.2 km/h 90% 0 mm 0 W/m2
07:14 8.8 °C 7.7 °C 1007.7 hPa SW 1.9 km/h 4.8 km/h 90% 0 mm 0 W/m2
07:19 8.8 °C 7.8 °C 1007.7 hPa SW 1.1 km/h 4.8 km/h 90% 0 mm 5 W/m2
07:24 8.8 °C 7.7 °C 1007.7 hPa SW 3.5 km/h 4.8 km/h 90% 0 mm 11 W/m2
07:29 8.8 °C 7.7 °C 1007.7 hPa SW 2.7 km/h 8 km/h 90% 0 mm 14 W/m2
07:34 8.9 °C 7.8 °C 1007.7 hPa SW 2.3 km/h 8 km/h 90% 0 mm 16 W/m2
07:39 9.1 °C 7.9 °C 1007.7 hPa SW 1.3 km/h 4.8 km/h 90% 0.25 mm 18 W/m2
07:44 9 °C 7.9 °C 1007.7 hPa SW 3.7 km/h 8 km/h 90% 0.25 mm 21 W/m2
07:49 9.1 °C 8.1 °C 1007.7 hPa SW 4 km/h 8 km/h 90.2% 0.25 mm 19 W/m2
07:54 9.2 °C 8.3 °C 1007.7 hPa SW 3.2 km/h 8 km/h 90.8% 0.25 mm 19 W/m2
07:59 9.3 °C 8.2 °C 1007.7 hPa SW 2.1 km/h 4.8 km/h 90% 0.25 mm 19 W/m2
08:04 9.3 °C 8.2 °C 1007.7 hPa SW 2.7 km/h 6.4 km/h 90% 0.25 mm 21 W/m2
08:09 9.4 °C 8.3 °C 1007.7 hPa SW 1.8 km/h 6.4 km/h 90% 0.25 mm 23 W/m2
08:14 9.7 °C 8.6 °C 1007.7 hPa SW 3.9 km/h 9.7 km/h 90% 0.25 mm 25 W/m2
08:19 9.8 °C 8.7 °C 1008 hPa SW 5.3 km/h 12.9 km/h 90% 0.25 mm 26 W/m2
08:24 10 °C 8.8 °C 1008 hPa SW 6.6 km/h 11.3 km/h 89.2% 0.25 mm 26 W/m2
08:29 10.2 °C 8.9 °C 1008 hPa SSW 12.2 km/h 19.3 km/h 88.8% 0.25 mm 30 W/m2
08:34 10.3 °C 8.8 °C 1008 hPa SW 9 km/h 16.1 km/h 87.8% 0.25 mm 33 W/m2
08:39 10.5 °C 8.9 °C 1008 hPa SW 5.8 km/h 14.5 km/h 87% 0 mm 42 W/m2
08:44 10.6 °C 8.9 °C 1008 hPa SW 7.9 km/h 17.7 km/h 86.6% 0 mm 53 W/m2
08:49 10.7 °C 8.9 °C 1008 hPa SW 6 km/h 14.5 km/h 86% 0 mm 67 W/m2
08:54 10.9 °C 9.1 °C 1008 hPa SW 5.1 km/h 11.3 km/h 86% 0 mm 83 W/m2
08:59 10.9 °C 9.1 °C 1008 hPa SW 9.5 km/h 29 km/h 85.2% 0 mm 100 W/m2
09:04 11.1 °C 9.2 °C 1008.4 hPa SW 11.3 km/h 17.7 km/h 85% 0 mm 114 W/m2
09:09 11.1 °C 9.2 °C 1008.4 hPa WSW 9 km/h 17.7 km/h 85% 0 mm 130 W/m2
09:14 11.3 °C 9.3 °C 1008.4 hPa WSW 7.1 km/h 17.7 km/h 85% 0 mm 146 W/m2
09:19 11.4 °C 9.4 °C 1008.4 hPa WSW 6.4 km/h 11.3 km/h 84.6% 0 mm 163 W/m2
09:24 11.6 °C 9.5 °C 1008.4 hPa WSW 6.6 km/h 11.3 km/h 84% 0 mm 179 W/m2
09:29 11.7 °C 9.6 °C 1008.4 hPa WSW 7.7 km/h 14.5 km/h 84% 0 mm 204 W/m2
09:34 11.7 °C 9.4 °C 1008.4 hPa SW 9.2 km/h 19.3 km/h 83.2% 0 mm 141 W/m2
09:39 11.7 °C 9.4 °C 1008.4 hPa SW 7.7 km/h 14.5 km/h 83.2% 0 mm 237 W/m2
09:44 11.8 °C 9.6 °C 1008.4 hPa WSW 10.1 km/h 14.5 km/h 83.4% 0 mm 251 W/m2
09:49 12 °C 9.7 °C 1008.4 hPa WSW 8.4 km/h 19.3 km/h 83% 0 mm 257 W/m2
09:54 12.3 °C 9.9 °C 1008.4 hPa WSW 10.9 km/h 19.3 km/h 82.6% 0 mm 274 W/m2
09:59 12.3 °C 9.8 °C 1008.7 hPa WSW 10 km/h 19.3 km/h 82% 0 mm 294 W/m2
10:04 12.4 °C 9.7 °C 1008.7 hPa SW 13.5 km/h 22.5 km/h 81% 0 mm 301 W/m2
10:09 12.5 °C 9.8 °C 1008.7 hPa SW 12.2 km/h 22.5 km/h 81% 0 mm 255 W/m2
10:14 12.6 °C 9.8 °C 1008.7 hPa SW 9 km/h 17.7 km/h 81% 0 mm 292 W/m2
10:19 12.6 °C 9.9 °C 1008.7 hPa SW 11.3 km/h 24.1 km/h 81% 0 mm 308 W/m2
10:24 12.6 °C 9.9 °C 1008.7 hPa WSW 10.9 km/h 19.3 km/h 81% 0 mm 295 W/m2
10:29 12.7 °C 10 °C 1008.7 hPa SW 11.3 km/h 29 km/h 81% 0 mm 327 W/m2
10:34 12.8 °C 10.2 °C 1008.7 hPa WSW 10.5 km/h 19.3 km/h 81% 0 mm 394 W/m2
10:39 12.9 °C 10.2 °C 1008.7 hPa WSW 10.1 km/h 20.9 km/h 80.8% 0 mm 427 W/m2
10:44 13.4 °C 10.7 °C 1008.7 hPa SW 7.1 km/h 17.7 km/h 80.8% 0 mm 459 W/m2
10:49 13.7 °C 10.7 °C 1008.4 hPa SW 8.4 km/h 20.9 km/h 79.8% 0 mm 439 W/m2
10:54 13.5 °C 10.4 °C 1008.4 hPa SW 10.3 km/h 20.9 km/h 79% 0 mm 244 W/m2
10:59 13.3 °C 10.2 °C 1008.4 hPa WSW 10 km/h 22.5 km/h 79% 0 mm 223 W/m2
11:04 13.3 °C 10.3 °C 1008.4 hPa SW 11.3 km/h 22.5 km/h 79.2% 0 mm 287 W/m2
11:09 13.6 °C 10.6 °C 1008.7 hPa SW 10 km/h 16.1 km/h 79.4% 0 mm 548 W/m2
11:13 14 °C 10.8 °C 1008.4 hPa SW 8.9 km/h 19.3 km/h 78.5% 0 mm 547 W/m2
11:19 14.2 °C 10.7 °C 1008.4 hPa SW 12.6 km/h 27.4 km/h 76.8% 0 mm 515 W/m2
11:24 14.4 °C 10.6 °C 1008.4 hPa SW 15.1 km/h 25.7 km/h 75.6% 0 mm 526 W/m2
11:29 14.4 °C 10.6 °C 1008.4 hPa WSW 11.4 km/h 24.1 km/h 75% 0 mm 471 W/m2
11:34 14.4 °C 10.5 °C 1008.4 hPa SW 13.2 km/h 24.1 km/h 75% 0 mm 462 W/m2
11:39 14.4 °C 10.4 °C 1008.4 hPa WSW 16.1 km/h 25.7 km/h 74.4% 0 mm 401 W/m2
11:44 14.3 °C 10.3 °C 1008.4 hPa WSW 10.9 km/h 27.4 km/h 74.2% 0 mm 330 W/m2
11:49 14.5 °C 10.4 °C 1008.4 hPa SW 9.5 km/h 20.9 km/h 74% 0 mm 369 W/m2
11:54 14.6 °C 10.5 °C 1008.4 hPa SW 12.6 km/h 24.1 km/h 74% 0 mm 475 W/m2
11:59 14.6 °C 10.5 °C 1008.4 hPa WSW 11.9 km/h 25.7 km/h 74% 0 mm 473 W/m2
12:04 14.7 °C 10.7 °C 1008.4 hPa SW 12.2 km/h 24.1 km/h 74.6% 0 mm 241 W/m2
12:09 14.5 °C 10.5 °C 1008.4 hPa SW 10.6 km/h 27.4 km/h 74.6% 0 mm 258 W/m2
12:14 14.3 °C 10.3 °C 1008.7 hPa SW 17.1 km/h 27.4 km/h 74% 0 mm 197 W/m2
12:19 14.2 °C 10.2 °C 1008.7 hPa SW 17.4 km/h 25.7 km/h 74% 0 mm 229 W/m2
12:24 14.2 °C 10.2 °C 1008.7 hPa SW 18.3 km/h 30.6 km/h 74.4% 0 mm 274 W/m2
12:29 14.3 °C 10.3 °C 1008.7 hPa WSW 15.1 km/h 25.7 km/h 74.4% 0 mm 214 W/m2
12:34 14.2 °C 10.1 °C 1008.7 hPa SW 12.6 km/h 25.7 km/h 74% 0 mm 315 W/m2
12:39 14.3 °C 10.2 °C 1008.7 hPa SW 9.5 km/h 24.1 km/h 74% 0 mm 397 W/m2
12:44 14.4 °C 10.3 °C 1008.7 hPa SW 12.2 km/h 20.9 km/h 74% 0 mm 350 W/m2
12:49 14.7 °C 10.6 °C 1008.7 hPa WSW 15.1 km/h 22.5 km/h 74% 0 mm 315 W/m2
12:54 14.7 °C 10.6 °C 1008.7 hPa West 10.9 km/h 20.9 km/h 74% 0 mm 220 W/m2
12:59 14.5 °C 10.4 °C 1008.7 hPa West 5.5 km/h 20.9 km/h 74% 0 mm 146 W/m2
13:04 14.5 °C 10.6 °C 1008.7 hPa SW 8.7 km/h 14.5 km/h 75% 0 mm 192 W/m2
13:09 14.5 °C 10.6 °C 1008.7 hPa SW 7.2 km/h 17.7 km/h 75% 0 mm 294 W/m2
13:14 14.5 °C 10.7 °C 1008.4 hPa SW 7.6 km/h 16.1 km/h 75.4% 0 mm 290 W/m2
13:19 14.6 °C 10.9 °C 1008.4 hPa SW 6.6 km/h 16.1 km/h 76% 0 mm 244 W/m2
13:24 14.7 °C 10.9 °C 1008.4 hPa WSW 8.4 km/h 16.1 km/h 76% 0 mm 153 W/m2
13:29 14.6 °C 10.9 °C 1008.4 hPa SW 7.6 km/h 16.1 km/h 76% 0 mm 155 W/m2
13:34 14.6 °C 11.1 °C 1008.4 hPa WSW 7.7 km/h 14.5 km/h 76.8% 0 mm 221 W/m2
13:39 14.7 °C 11.3 °C 1008.4 hPa WSW 6.1 km/h 11.3 km/h 78% 0 mm 522 W/m2
13:44 14.7 °C 11.5 °C 1008.4 hPa WSW 5.5 km/h 9.7 km/h 78.4% 0 mm 396 W/m2
13:49 14.7 °C 11.4 °C 1008 hPa SW 13.2 km/h 24.1 km/h 77.8% 0 mm 183 W/m2
13:54 14.7 °C 11.1 °C 1008.4 hPa SW 12.6 km/h 30.6 km/h 76% 0 mm 411 W/m2
13:59 14.9 °C 10.9 °C 1008.4 hPa SW 14.2 km/h 22.5 km/h 74.8% 0 mm 330 W/m2
14:04 14.9 °C 10.8 °C 1008.4 hPa WSW 12.6 km/h 25.7 km/h 74% 0 mm 271 W/m2
14:09 14.9 °C 11 °C 1008.4 hPa WSW 12.9 km/h 20.9 km/h 75% 0 mm 225 W/m2
14:14 14.8 °C 10.8 °C 1008.4 hPa SW 12.4 km/h 22.5 km/h 74.4% 0 mm 185 W/m2
14:19 14.9 °C 11 °C 1008 hPa SW 8.7 km/h 17.7 km/h 75% 0 mm 148 W/m2
14:23 14.8 °C 10.9 °C 1008 hPa SW 5.1 km/h 17.7 km/h 75.3% 0 mm 139 W/m2
14:29 14.6 °C 11.1 °C 1008 hPa SW 10.1 km/h 19.3 km/h 76.6% 0 mm 141 W/m2
14:34 14.4 °C 11.1 °C 1008 hPa SW 8.5 km/h 14.5 km/h 77.6% 0 mm 142 W/m2
14:39 14.2 °C 11.1 °C 1008 hPa SW 9.2 km/h 16.1 km/h 78.8% 0 mm 167 W/m2
14:44 13.9 °C 10.9 °C 1008 hPa WSW 8.4 km/h 16.1 km/h 79.8% 0 mm 199 W/m2
14:49 13.8 °C 11.1 °C 1008 hPa SW 8.5 km/h 17.7 km/h 80.8% 0 mm 204 W/m2
14:54 13.8 °C 11.1 °C 1008 hPa SSW 9.3 km/h 19.3 km/h 81% 0 mm 172 W/m2
14:59 13.7 °C 11.1 °C 1008 hPa SW 10 km/h 19.3 km/h 81% 0 mm 253 W/m2
15:04 13.8 °C 11.3 °C 1008.4 hPa SSW 11.9 km/h 19.3 km/h 82% 0 mm 241 W/m2
15:09 13.8 °C 11.3 °C 1008 hPa SSW 10.9 km/h 16.1 km/h 82% 0 mm 281 W/m2
15:14 13.8 °C 11.3 °C 1008 hPa SW 9.5 km/h 25.7 km/h 82% 0 mm 248 W/m2
15:19 13.8 °C 11.3 °C 1008 hPa SSW 11.3 km/h 17.7 km/h 82% 0 mm 204 W/m2
15:24 13.9 °C 11.4 °C 1008 hPa SW 10.9 km/h 19.3 km/h 82% 0 mm 301 W/m2
15:29 14 °C 11.5 °C 1008 hPa SSW 8.5 km/h 16.1 km/h 82% 0 mm 255 W/m2
15:34 14.4 °C 11.9 °C 1008 hPa SW 8.5 km/h 17.7 km/h 81.8% 0 mm 559 W/m2
15:39 14.7 °C 11.9 °C 1008 hPa SW 13.8 km/h 25.7 km/h 80.6% 0 mm 441 W/m2
15:44 14.4 °C 11.6 °C 1008 hPa SW 16.4 km/h 27.4 km/h 80% 0 mm 248 W/m2
15:49 14.5 °C 11.6 °C 1008 hPa SW 12.4 km/h 25.7 km/h 80.2% 0 mm 496 W/m2
15:54 14.9 °C 12.1 °C 1007.7 hPa WSW 8.7 km/h 17.7 km/h 80.4% 0 mm 487 W/m2
15:59 15.1 °C 12.1 °C 1007.7 hPa SW 16.4 km/h 25.7 km/h 79.4% 0 mm 410 W/m2
16:04 14.9 °C 11.8 °C 1007.7 hPa SW 17.7 km/h 27.4 km/h 79% 0 mm 373 W/m2
16:09 14.9 °C 11.8 °C 1007.7 hPa SW 13.2 km/h 24.1 km/h 79% 0 mm 301 W/m2
16:14 15 °C 11.8 °C 1007.7 hPa SSW 10.3 km/h 22.5 km/h 78.8% 0 mm 232 W/m2
16:19 14.8 °C 11.5 °C 1007.7 hPa SW 16.1 km/h 25.7 km/h 78% 0 mm 193 W/m2
16:24 14.7 °C 11.4 °C 1007.7 hPa WSW 14.5 km/h 24.1 km/h 78% 0 mm 188 W/m2
16:29 14.7 °C 11.5 °C 1007.7 hPa SW 13.8 km/h 25.7 km/h 78.6% 0 mm 190 W/m2
16:34 14.6 °C 11.4 °C 1007.7 hPa SW 11.6 km/h 20.9 km/h 79% 0 mm 135 W/m2
16:39 14.6 °C 11.7 °C 1007.7 hPa SW 7.2 km/h 19.3 km/h 80% 0 mm 135 W/m2
16:44 14.6 °C 11.7 °C 1007.7 hPa SW 9 km/h 20.9 km/h 80% 0 mm 98 W/m2
16:49 14.3 °C 11.4 °C 1007.7 hPa WSW 7.9 km/h 22.5 km/h 80% 0 mm 97 W/m2
16:54 14.3 °C 11.4 °C 1007.7 hPa SW 8 km/h 16.1 km/h 80% 0 mm 107 W/m2
16:59 14.3 °C 11.5 °C 1007.7 hPa SW 8 km/h 12.9 km/h 80.4% 0 mm 98 W/m2
17:04 14.3 °C 11.5 °C 1007.3 hPa SW 9 km/h 17.7 km/h 80.6% 0 mm 97 W/m2
17:09 14.3 °C 11.5 °C 1007.3 hPa SW 10.6 km/h 17.7 km/h 80.6% 0 mm 81 W/m2
17:14 14.3 °C 11.4 °C 1007.3 hPa SW 7.9 km/h 20.9 km/h 80% 0 mm 74 W/m2
17:19 14.3 °C 11.4 °C 1007.3 hPa SW 6 km/h 12.9 km/h 80% 0 mm 42 W/m2
17:24 14.3 °C 11.4 °C 1007 hPa SSW 7.9 km/h 14.5 km/h 80.2% 0 mm 37 W/m2
17:29 14.2 °C 11.5 °C 1007 hPa South 7.4 km/h 20.9 km/h 81% 0 mm 83 W/m2
17:34 14.2 °C 11.5 °C 1007 hPa South 9.8 km/h 20.9 km/h 81% 0 mm 102 W/m2
17:39 14.1 °C 11.5 °C 1007 hPa SSW 7.2 km/h 19.3 km/h 81.4% 0 mm 121 W/m2
17:44 14.1 °C 11.6 °C 1007 hPa SSW 10 km/h 22.5 km/h 81.8% 0 mm 163 W/m2
17:49 14.1 °C 11.4 °C 1007 hPa SSW 10 km/h 20.9 km/h 81% 0 mm 155 W/m2
17:54 14 °C 11.3 °C 1007 hPa South 12.9 km/h 24.1 km/h 81% 0 mm 70 W/m2
17:59 13.9 °C 11.2 °C 1007 hPa SSW 7.7 km/h 14.5 km/h 81% 0 mm 32 W/m2
18:04 13.8 °C 11.2 °C 1006.7 hPa SSW 7.2 km/h 16.1 km/h 81.6% 0 mm 23 W/m2
18:09 13.7 °C 11.2 °C 1006.7 hPa SSW 6.4 km/h 17.7 km/h 82% 0 mm 12 W/m2
18:14 13.7 °C 11.2 °C 1006.7 hPa SSW 8.9 km/h 20.9 km/h 82.2% 0 mm 9 W/m2
18:18 13.6 °C 11.3 °C 1006.7 hPa SSW 8.5 km/h 17.7 km/h 83% 0 mm 7 W/m2
18:23 13.6 °C 11.3 °C 1006.7 hPa SSW 9.5 km/h 14.5 km/h 83% 0 mm 7 W/m2
18:29 13.6 °C 11.3 °C 1006.7 hPa SSW 10.5 km/h 16.1 km/h 83% 0 mm 5 W/m2
18:31 13.4 °C 11.1 °C 1006.7 hPa SW 11.1 km/h 14.5 km/h 83% 0 mm 0 W/m2
18:37 13.4 °C 11.1 °C 1006.7 hPa South 6.4 km/h 11.3 km/h 83% 0 mm 0 W/m2
18:44 13.3 °C 11.1 °C 1006.7 hPa South 6.4 km/h 11.3 km/h 84% 0 mm 0 W/m2
18:49 13.3 °C 11.1 °C 1006.3 hPa South 9.3 km/h 16.1 km/h 84% 0 mm 0 W/m2
18:54 13.2 °C 11 °C 1006.3 hPa South 10.5 km/h 16.1 km/h 84% 0 mm 0 W/m2
18:59 13.2 °C 10.9 °C 1006.7 hPa SSW 8.5 km/h 14.5 km/h 84% 0 mm 0 W/m2
19:04 13.1 °C 10.9 °C 1006.3 hPa SSW 6.9 km/h 12.9 km/h 84.4% 0 mm 0 W/m2
19:09 12.9 °C 10.9 °C 1006.3 hPa South 6.9 km/h 12.9 km/h 85% 0 mm 0 W/m2
19:14 12.9 °C 10.9 °C 1006.3 hPa South 6.4 km/h 11.3 km/h 85% 0 mm 0 W/m2
19:19 12.9 °C 11.1 °C 1006.3 hPa South 8.7 km/h 11.3 km/h 86% 0 mm 0 W/m2
19:24 12.9 °C 11.2 °C 1006.3 hPa South 6 km/h 11.3 km/h 86.4% 0 mm 0 W/m2
19:29 12.8 °C 11.2 °C 1006 hPa SSE 8.7 km/h 17.7 km/h 87% 0 mm 0 W/m2
19:34 12.8 °C 11.3 °C 1006 hPa SSE 10.1 km/h 16.1 km/h 87.8% 0 mm 0 W/m2
19:38 12.8 °C 11.4 °C 1006 hPa South 6.4 km/h 16.1 km/h 88% 0 mm 0 W/m2
19:44 12.8 °C 11.4 °C 1006 hPa South 6.3 km/h 11.3 km/h 88% 0 mm 0 W/m2
19:49 12.8 °C 11.4 °C 1006 hPa South 4.5 km/h 9.7 km/h 88% 0 mm 0 W/m2
19:54 12.8 °C 11.4 °C 1005.6 hPa SSE 5.8 km/h 12.9 km/h 88% 0 mm 0 W/m2
19:59 12.8 °C 11.4 °C 1005.6 hPa SSE 4.2 km/h 8 km/h 88% 0 mm 0 W/m2
20:04 12.8 °C 11.4 °C 1005.6 hPa SSE 7.2 km/h 16.1 km/h 88% 0 mm 0 W/m2
20:09 12.8 °C 11.4 °C 1005.3 hPa South 7.7 km/h 17.7 km/h 88% 0.25 mm 0 W/m2
20:14 12.8 °C 11.4 °C 1005.3 hPa South 4.7 km/h 11.3 km/h 88% 0.25 mm 0 W/m2
20:19 12.8 °C 11.4 °C 1005 hPa South 7.2 km/h 12.9 km/h 88.2% 0.25 mm 0 W/m2
20:24 12.8 °C 11.5 °C 1005 hPa SSE 4.7 km/h 11.3 km/h 89% 0.25 mm 0 W/m2
20:29 12.8 °C 11.5 °C 1004.6 hPa SSE 8 km/h 16.1 km/h 89% 0.25 mm 0 W/m2
20:34 12.8 °C 11.5 °C 1004.6 hPa SSE 7.9 km/h 17.7 km/h 89% 0.25 mm 0 W/m2
20:39 12.8 °C 11.5 °C 1004.3 hPa South 11.6 km/h 16.1 km/h 89% 0.25 mm 0 W/m2
20:44 12.8 °C 11.5 °C 1004.3 hPa South 7.2 km/h 12.9 km/h 89% 0.25 mm 0 W/m2
20:49 12.8 °C 11.5 °C 1003.9 hPa South 6.3 km/h 11.3 km/h 89% 0.51 mm 0 W/m2
20:54 12.8 °C 11.5 °C 1003.9 hPa South 8.2 km/h 12.9 km/h 89% 0.51 mm 0 W/m2
20:59 12.8 °C 11.5 °C 1003.9 hPa South 8 km/h 17.7 km/h 89% 0.51 mm 0 W/m2
21:04 12.8 °C 11.5 °C 1003.6 hPa SSE 11.6 km/h 17.7 km/h 89% 0.51 mm 0 W/m2
21:09 12.8 °C 11.5 °C 1003.6 hPa SSE 13.2 km/h 17.7 km/h 89% 0.51 mm 0 W/m2
21:14 12.8 °C 11.5 °C 1003.6 hPa South 9.5 km/h 24.1 km/h 89% 0.25 mm 0 W/m2
21:19 12.8 °C 11.6 °C 1003.3 hPa SSE 10.6 km/h 19.3 km/h 89% 0.25 mm 0 W/m2
21:24 12.9 °C 11.6 °C 1003.3 hPa South 8 km/h 19.3 km/h 88.6% 0.25 mm 0 W/m2
21:29 13 °C 11.6 °C 1002.9 hPa SSE 8.2 km/h 16.1 km/h 88% 0.25 mm 0 W/m2
21:34 13.1 °C 11.7 °C 1002.9 hPa South 13.5 km/h 29 km/h 88.2% 0.25 mm 0 W/m2
21:39 13.1 °C 11.7 °C 1002.6 hPa SSE 9.7 km/h 19.3 km/h 88.4% 0.25 mm 0 W/m2
21:44 13.1 °C 11.8 °C 1002.6 hPa SSE 12.1 km/h 25.7 km/h 89% 0.25 mm 0 W/m2
21:49 13.1 °C 11.8 °C 1002.6 hPa SSE 9.7 km/h 25.7 km/h 89% 0.25 mm 0 W/m2
21:54 13.2 °C 11.9 °C 1002.3 hPa South 11.9 km/h 20.9 km/h 89% 0 mm 0 W/m2
21:59 13.3 °C 11.8 °C 1002.3 hPa SSE 14 km/h 30.6 km/h 88% 0 mm 0 W/m2
22:04 13.3 °C 11.8 °C 1001.9 hPa SSE 13.7 km/h 27.4 km/h 88% 0 mm 0 W/m2
22:09 13.3 °C 11.8 °C 1001.9 hPa South 9.2 km/h 27.4 km/h 88% 0.25 mm 0 W/m2
22:14 13.3 °C 12 °C 1001.9 hPa SSE 13.5 km/h 20.9 km/h 89% 0.51 mm 0 W/m2
22:19 13.3 °C 12 °C 1001.9 hPa SSE 12.6 km/h 19.3 km/h 89% 0.76 mm 0 W/m2
22:24 13.2 °C 11.9 °C 1001.6 hPa SSE 11.6 km/h 19.3 km/h 89.2% 1.52 mm 0 W/m2
22:29 13.1 °C 12 °C 1001.6 hPa South 8.4 km/h 16.1 km/h 90% 1.52 mm 0 W/m2
22:34 13.1 °C 12 °C 1001.6 hPa SSE 10.9 km/h 17.7 km/h 90% 1.78 mm 0 W/m2
22:39 13.1 °C 12.1 °C 1001.2 hPa SSE 11.4 km/h 22.5 km/h 90.6% 2.03 mm 0 W/m2
22:44 13.1 °C 12.2 °C 1001.2 hPa SSW 9.3 km/h 22.5 km/h 91% 2.29 mm 0 W/m2
22:49 13.1 °C 12.2 °C 1001.2 hPa South 12.2 km/h 30.6 km/h 91% 2.54 mm 0 W/m2
22:54 13.1 °C 12.2 °C 1001.2 hPa SSW 8.9 km/h 19.3 km/h 91% 3.05 mm 0 W/m2
22:59 13.1 °C 12.2 °C 1001.2 hPa South 10.8 km/h 25.7 km/h 91% 3.56 mm 0 W/m2
23:04 13.1 °C 12.2 °C 1000.9 hPa South 10.3 km/h 25.7 km/h 91% 4.32 mm 0 W/m2
23:09 13 °C 12.2 °C 1000.9 hPa South 10.5 km/h 20.9 km/h 91.4% 4.57 mm 0 W/m2
23:14 13 °C 12.2 °C 1000.6 hPa South 12.6 km/h 24.1 km/h 92% 5.08 mm 0 W/m2
23:19 13.1 °C 12.3 °C 1000.6 hPa South 13.4 km/h 29 km/h 92% 5.08 mm 0 W/m2
23:24 13.1 °C 12.3 °C 1000.6 hPa SSW 12.7 km/h 27.4 km/h 92% 5.08 mm 0 W/m2
23:29 13.2 °C 12.3 °C 1000.2 hPa South 12.6 km/h 29 km/h 92% 5.08 mm 0 W/m2
23:34 13.2 °C 12.3 °C 999.9 hPa South 10.8 km/h 30.6 km/h 92% 5.59 mm 0 W/m2
23:39 13.1 °C 12.3 °C 999.5 hPa South 6.4 km/h 17.7 km/h 92% 5.84 mm 0 W/m2
23:44 13.1 °C 12.3 °C 999.2 hPa SSE 11.6 km/h 19.3 km/h 92% 6.1 mm 0 W/m2
23:49 13.1 °C 12.3 °C 999.2 hPa South 12.2 km/h 27.4 km/h 92% 6.1 mm 0 W/m2
23:54 13.2 °C 12.3 °C 998.5 hPa SSE 13.8 km/h 25.7 km/h 92% 5.59 mm 0 W/m2
23:59 13.2 °C 12.4 °C 998.5 hPa SSE 15.4 km/h 27.4 km/h 92% 5.08 mm 0 W/m2
Bath Spa Weather
Compliments of Weather Underground - 2 mb